Terminal Aerodrome Forecast
Issued by NWS Charleston, WV

Current Version | Previous Version | Text Only | Print | Product List | Glossary Off
Versions: 1 2 3 4 5 6 7 8 9 10 11 12 13 14 15 16 17 18 19 20 21 22 23 24 25 26 27 28 29 30

000
FTUS41 KRLX 221755 AAB
TAFEKN
TAF AMD
KEKN 221755Z 2218/2318 30010KT 6SM SHRA OVC040
      TEMPO 2218/2221 3SM RA BR OVC025
     FM222100 28004KT P6SM OVC008
     FM222300 19003KT P6SM OVC008
     FM230300 13003KT 6SM BR OVC003
     FM230800 14003KT 3SM SHRA OVC003
     FM231100 16003KT 3SM BR OVC015
     FM231500 18006KT P6SM BKN025=

USA.gov is the U.S. government's official web portal to all federal, state and local government web resources and services.